sensor_id;sensor_type;location;lat;lon;timestamp;temperature;humidity
76750;DHT22;66447;35.844;14.468;2023-08-01T00:13:21;30.66;118.99
76750;DHT22;66447;35.844;14.468;2023-08-01T00:28:22;30.70;118.99
76750;DHT22;66447;35.844;14.468;2023-08-01T00:43:23;30.45;118.99
76750;DHT22;66447;35.844;14.468;2023-08-01T00:58:24;30.75;118.99
76750;DHT22;66447;35.844;14.468;2023-08-01T01:13:24;31.16;118.99
76750;DHT22;66447;35.844;14.468;2023-08-01T01:28:26;30.81;118.99
76750;DHT22;66447;35.844;14.468;2023-08-01T01:43:27;30.83;118.99
76750;DHT22;66447;35.844;14.468;2023-08-01T01:58:27;30.19;118.99
76750;DHT22;66447;35.844;14.468;2023-08-01T02:13:29;30.71;118.99
76750;DHT22;66447;35.844;14.468;2023-08-01T02:28:30;29.90;118.99
76750;DHT22;66447;35.844;14.468;2023-08-01T02:43:30;30.17;118.99
76750;DHT22;66447;35.844;14.468;2023-08-01T02:58:31;30.09;118.99
76750;DHT22;66447;35.844;14.468;2023-08-01T03:13:32;29.74;118.99
76750;DHT22;66447;35.844;14.468;2023-08-01T03:28:33;30.47;118.99
76750;DHT22;66447;35.844;14.468;2023-08-01T03:43:34;30.57;118.99
76750;DHT22;66447;35.844;14.468;2023-08-01T03:58:34;30.20;118.99
76750;DHT22;66447;35.844;14.468;2023-08-01T04:13:35;29.60;118.99
76750;DHT22;66447;35.844;14.468;2023-08-01T04:28:36;30.20;118.99
76750;DHT22;66447;35.844;14.468;2023-08-01T04:43:37;31.83;118.99
76750;DHT22;66447;35.844;14.468;2023-08-01T04:58:37;31.96;118.99
76750;DHT22;66447;35.844;14.468;2023-08-01T05:13:38;33.20;70.54
76750;DHT22;66447;35.844;14.468;2023-08-01T05:28:39;34.81;29.91
76750;DHT22;66447;35.844;14.468;2023-08-01T05:43:40;33.75;69.94
76750;DHT22;66447;35.844;14.468;2023-08-01T05:58:40;34.27;65.29
76750;DHT22;66447;35.844;14.468;2023-08-01T06:13:41;32.74;118.99
76750;DHT22;66447;35.844;14.468;2023-08-01T06:28:42;34.85;49.62
76750;DHT22;66447;35.844;14.468;2023-08-01T06:43:43;35.77;13.00
76750;DHT22;66447;35.844;14.468;2023-08-01T06:58:44;36.57;-6.00
76750;DHT22;66447;35.844;14.468;2023-08-01T07:13:45;36.00;-6.00
76750;DHT22;66447;35.844;14.468;2023-08-01T07:28:45;36.51;-6.00
76750;DHT22;66447;35.844;14.468;2023-08-01T07:43:46;37.62;-6.00
76750;DHT22;66447;35.844;14.468;2023-08-01T07:58:47;39.96;-6.00
76750;DHT22;66447;35.844;14.468;2023-08-01T08:13:48;40.74;-6.00
76750;DHT22;66447;35.844;14.468;2023-08-01T08:28:49;41.46;-6.00
76750;DHT22;66447;35.844;14.468;2023-08-01T08:43:51;39.87;-6.00
76750;DHT22;66447;35.844;14.468;2023-08-01T08:58:54;43.25;-6.00
76750;DHT22;66447;35.844;14.468;2023-08-01T09:13:55;40.27;-6.00
76750;DHT22;66447;35.844;14.468;2023-08-01T09:28:57;42.01;-6.00
76750;DHT22;66447;35.844;14.468;2023-08-01T09:43:58;42.31;-6.00
76750;DHT22;66447;35.844;14.468;2023-08-01T09:58:59;41.85;-6.00
76750;DHT22;66447;35.844;14.468;2023-08-01T10:14:02;42.15;-6.00
76750;DHT22;66447;35.844;14.468;2023-08-01T10:29:03;43.10;-6.00
76750;DHT22;66447;35.844;14.468;2023-08-01T10:44:06;42.62;-6.00
76750;DHT22;66447;35.844;14.468;2023-08-01T10:59:07;41.45;-6.00
76750;DHT22;66447;35.844;14.468;2023-08-01T11:14:08;39.81;-6.00
76750;DHT22;66447;35.844;14.468;2023-08-01T11:29:10;40.74;-6.00
76750;DHT22;66447;35.844;14.468;2023-08-01T11:44:14;39.45;-6.00
76750;DHT22;66447;35.844;14.468;2023-08-01T11:59:17;42.51;-6.00
76750;DHT22;66447;35.844;14.468;2023-08-01T12:14:18;39.68;-6.00
76750;DHT22;66447;35.844;14.468;2023-08-01T12:29:18;40.50;-6.00
76750;DHT22;66447;35.844;14.468;2023-08-01T12:44:20;42.31;-6.00
76750;DHT22;66447;35.844;14.468;2023-08-01T12:59:21;39.47;-6.00
76750;DHT22;66447;35.844;14.468;2023-08-01T13:14:24;38.49;-6.00
76750;DHT22;66447;35.844;14.468;2023-08-01T13:29:25;38.04;-6.00
76750;DHT22;66447;35.844;14.468;2023-08-01T13:44:26;38.04;-6.00
76750;DHT22;66447;35.844;14.468;2023-08-01T13:59:27;39.43;-6.00
76750;DHT22;66447;35.844;14.468;2023-08-01T14:14:27;39.35;-6.00
76750;DHT22;66447;35.844;14.468;2023-08-01T14:29:28;40.23;-6.00
76750;DHT22;66447;35.844;14.468;2023-08-01T14:44:29;37.43;-6.00
76750;DHT22;66447;35.844;14.468;2023-08-01T14:59:30;38.76;-6.00
76750;DHT22;66447;35.844;14.468;2023-08-01T15:14:31;37.42;-6.00
76750;DHT22;66447;35.844;14.468;2023-08-01T15:29:32;38.49;-6.00
76750;DHT22;66447;35.844;14.468;2023-08-01T15:44:33;37.52;-6.00
76750;DHT22;66447;35.844;14.468;2023-08-01T15:59:33;35.38;-6.00
76750;DHT22;66447;35.844;14.468;2023-08-01T16:14:34;35.81;-6.00
76750;DHT22;66447;35.844;14.468;2023-08-01T16:29:35;35.26;-6.00
76750;DHT22;66447;35.844;14.468;2023-08-01T16:44:36;33.51;10.22
76750;DHT22;66447;35.844;14.468;2023-08-01T16:59:38;33.90;9.11
76750;DHT22;66447;35.844;14.468;2023-08-01T17:14:41;33.73;6.99
76750;DHT22;66447;35.844;14.468;2023-08-01T17:29:42;33.01;52.13
76750;DHT22;66447;35.844;14.468;2023-08-01T17:44:43;32.59;92.93
76750;DHT22;66447;35.844;14.468;2023-08-01T17:59:45;32.61;86.07
76750;DHT22;66447;35.844;14.468;2023-08-01T18:14:46;31.60;118.99
76750;DHT22;66447;35.844;14.468;2023-08-01T18:29:46;31.63;118.99
76750;DHT22;66447;35.844;14.468;2023-08-01T18:44:48;31.80;108.68
76750;DHT22;66447;35.844;14.468;2023-08-01T18:59:48;31.37;118.99
76750;DHT22;66447;35.844;14.468;2023-08-01T19:14:49;31.42;118.99
76750;DHT22;66447;35.844;14.468;2023-08-01T19:29:51;31.00;118.99
76750;DHT22;66447;35.844;14.468;2023-08-01T19:44:53;30.93;118.99
76750;DHT22;66447;35.844;14.468;2023-08-01T19:59:54;30.93;118.99
76750;DHT22;66447;35.844;14.468;2023-08-01T20:14:56;30.96;118.99
76750;DHT22;66447;35.844;14.468;2023-08-01T20:29:56;31.06;118.99
76750;DHT22;66447;35.844;14.468;2023-08-01T20:44:57;30.57;118.99
76750;DHT22;66447;35.844;14.468;2023-08-01T20:59:58;30.92;118.99
76750;DHT22;66447;35.844;14.468;2023-08-01T21:14:59;30.97;118.99
76750;DHT22;66447;35.844;14.468;2023-08-01T21:30:00;31.75;118.99
76750;DHT22;66447;35.844;14.468;2023-08-01T21:45:00;30.87;118.99
76750;DHT22;66447;35.844;14.468;2023-08-01T22:00:03;30.39;118.99
76750;DHT22;66447;35.844;14.468;2023-08-01T22:15:05;30.17;118.99
76750;DHT22;66447;35.844;14.468;2023-08-01T22:30:06;29.30;118.99
76750;DHT22;66447;35.844;14.468;2023-08-01T22:45:07;30.71;118.99
76750;DHT22;66447;35.844;14.468;2023-08-01T23:00:08;30.52;118.99
76750;DHT22;66447;35.844;14.468;2023-08-01T23:15:09;31.07;118.99
76750;DHT22;66447;35.844;14.468;2023-08-01T23:30:11;30.07;118.99
76750;DHT22;66447;35.844;14.468;2023-08-01T23:45:12;28.49;118.99
